createdAt,value
2023-05-23T00:01:07.245Z,10.07
2023-05-23T00:03:35.496Z,10.93
2023-05-23T00:06:02.567Z,9.80
2023-05-23T00:08:29.008Z,11.43
2023-05-23T00:10:55.537Z,10.15
2023-05-23T00:13:22.225Z,10.85
2023-05-23T00:15:48.966Z,10.73
2023-05-23T00:18:16.417Z,10.77
2023-05-23T00:20:43.446Z,10.32
2023-05-23T00:23:11.012Z,11.95
2023-05-23T00:25:38.319Z,11.25
2023-05-23T00:28:05.434Z,11.68
2023-05-23T00:30:34.121Z,12.15
2023-05-23T00:33:01.353Z,11.20
2023-05-23T00:35:28.075Z,11.98
2023-05-23T00:37:55.753Z,11.45
2023-05-23T00:40:23.437Z,11.60
2023-05-23T00:42:49.918Z,10.93
2023-05-23T00:45:17.322Z,11.18
2023-05-23T00:47:45.838Z,10.73
2023-05-23T00:52:39.532Z,10.05
2023-05-23T00:55:06.874Z,10.07
2023-05-23T00:57:40.575Z,11.15
2023-05-23T01:00:13.666Z,10.30
2023-05-23T01:02:51.396Z,9.57
2023-05-23T01:05:20.955Z,8.73
2023-05-23T01:07:49.314Z,7.47
2023-05-23T01:10:20.387Z,6.38
2023-05-23T01:12:57.974Z,6.45
2023-05-23T01:15:33.268Z,5.83
2023-05-23T01:18:10.972Z,6.30
2023-05-23T01:20:46.013Z,5.78
2023-05-23T01:23:47.459Z,5.63
2023-05-23T01:26:19.624Z,5.45
2023-05-23T01:28:50.258Z,5.82
2023-05-23T01:31:18.666Z,5.65
2023-05-23T01:33:46.559Z,5.90
2023-05-23T01:36:15.198Z,6.32
2023-05-23T01:41:08.456Z,6.00
2023-05-23T01:43:34.960Z,6.00
2023-05-23T01:46:03.013Z,6.28
2023-05-23T01:48:31.230Z,6.35
2023-05-23T01:50:58.986Z,6.38
2023-05-23T01:53:26.492Z,6.40
2023-05-23T01:55:53.038Z,6.25
2023-05-23T01:58:19.764Z,6.40
2023-05-23T02:00:46.613Z,6.28
2023-05-23T02:03:13.337Z,6.70
2023-05-23T02:05:40.365Z,6.95
2023-05-23T02:08:07.272Z,6.40
2023-05-23T02:10:33.982Z,7.22
2023-05-23T02:13:00.460Z,6.10
2023-05-23T02:15:27.136Z,6.93
2023-05-23T02:17:53.838Z,7.20
2023-05-23T02:20:20.463Z,7.07
2023-05-23T02:22:46.832Z,6.85
2023-05-23T02:25:13.242Z,7.25
2023-05-23T02:27:39.940Z,6.35
2023-05-23T02:30:09.238Z,6.95
2023-05-23T02:32:37.579Z,7.13
2023-05-23T02:37:30.740Z,7.50
2023-05-23T02:39:57.218Z,7.57
2023-05-23T02:42:23.846Z,7.07
2023-05-23T02:44:50.338Z,7.90
2023-05-23T02:47:16.733Z,8.15
2023-05-23T02:49:43.316Z,8.00
2023-05-23T02:52:09.937Z,10.00
2023-05-23T02:54:36.335Z,9.13
2023-05-23T02:57:02.784Z,9.32
2023-05-23T02:59:29.148Z,9.98
2023-05-23T03:01:55.828Z,10.05
2023-05-23T03:04:23.995Z,9.70
2023-05-23T03:06:54.447Z,9.50
2023-05-23T03:09:21.618Z,10.07
2023-05-23T03:11:48.447Z,9.50
2023-05-23T03:14:15.076Z,9.70
2023-05-23T03:16:41.969Z,10.07
2023-05-23T03:19:08.736Z,9.93
2023-05-23T03:21:35.718Z,9.13
2023-05-23T03:24:02.341Z,9.00
2023-05-23T03:26:28.987Z,10.80
2023-05-23T03:28:56.242Z,10.88
2023-05-23T03:31:22.954Z,12.25
2023-05-23T03:33:49.575Z,11.43
2023-05-23T03:36:16.232Z,12.38
2023-05-23T03:38:42.868Z,13.43
2023-05-23T03:41:09.556Z,13.93
2023-05-23T03:43:36.462Z,14.75
2023-05-23T03:46:03.162Z,13.75
2023-05-23T03:48:30.654Z,14.32
2023-05-23T03:50:57.209Z,13.68
2023-05-23T03:53:23.809Z,13.10
2023-05-23T03:55:50.799Z,12.45
2023-05-23T03:58:17.484Z,12.05
2023-05-23T04:00:44.367Z,12.00
2023-05-23T04:03:12.169Z,12.45
2023-05-23T04:05:38.879Z,12.23
2023-05-23T04:08:07.155Z,12.32
2023-05-23T04:10:33.729Z,11.50
2023-05-23T04:13:00.310Z,13.05
2023-05-23T04:15:28.175Z,12.18
2023-05-23T04:17:55.122Z,12.57
2023-05-23T04:22:49.502Z,11.43
2023-05-23T04:25:18.801Z,11.23
2023-05-23T04:27:45.290Z,10.30
2023-05-23T04:30:12.441Z,10.45
2023-05-23T04:32:39.016Z,10.23
2023-05-23T04:35:05.885Z,10.43
2023-05-23T04:37:33.296Z,10.23
2023-05-23T04:40:03.207Z,10.38
2023-05-23T04:42:29.770Z,9.85
2023-05-23T04:44:59.042Z,9.73
2023-05-23T04:47:28.015Z,9.50
2023-05-23T04:49:56.040Z,9.75
2023-05-23T04:52:22.813Z,9.27
2023-05-23T04:54:49.650Z,9.32
2023-05-23T04:57:16.925Z,9.68
2023-05-23T04:59:43.404Z,9.68
2023-05-23T05:02:09.765Z,8.68
2023-05-23T05:04:36.637Z,9.25
2023-05-23T05:07:04.508Z,9.40
2023-05-23T05:09:31.526Z,9.27
2023-05-23T05:11:59.268Z,8.63
2023-05-23T05:14:27.408Z,8.82
2023-05-23T05:16:57.885Z,8.55
2023-05-23T05:19:25.323Z,8.73
2023-05-23T05:21:52.438Z,9.63
2023-05-23T05:24:21.045Z,8.77
2023-05-23T05:29:15.119Z,9.30
2023-05-23T05:31:41.694Z,9.52
2023-05-23T05:34:08.134Z,9.55
2023-05-23T05:36:34.826Z,9.77
2023-05-23T05:39:01.237Z,9.80
2023-05-23T05:41:27.884Z,10.18
2023-05-23T05:43:54.320Z,10.90
2023-05-23T05:46:21.029Z,10.55
2023-05-23T05:48:47.550Z,11.38
2023-05-23T05:51:13.950Z,10.57
2023-05-23T05:53:40.401Z,11.07
2023-05-23T05:56:09.125Z,11.02
2023-05-23T05:58:35.852Z,10.43
2023-05-23T06:01:02.329Z,11.13
2023-05-23T06:03:28.928Z,10.65
2023-05-23T06:05:55.797Z,10.88
2023-05-23T06:08:22.386Z,10.00
2023-05-23T06:10:48.825Z,10.98
2023-05-23T06:13:15.499Z,10.57
2023-05-23T06:15:41.885Z,10.98
2023-05-23T06:18:08.581Z,11.82
2023-05-23T06:20:35.068Z,11.65
2023-05-23T06:23:01.862Z,11.73
2023-05-23T06:25:28.290Z,10.35
2023-05-23T06:27:55.712Z,11.75
2023-05-23T06:30:23.165Z,11.75
2023-05-23T06:32:49.902Z,11.10
2023-05-23T06:35:17.922Z,10.98
2023-05-23T06:37:45.780Z,10.70
2023-05-23T06:40:14.638Z,10.30
2023-05-23T06:42:41.696Z,10.88
2023-05-23T06:45:08.698Z,10.32
2023-05-23T06:47:35.443Z,10.20
2023-05-23T06:50:03.060Z,8.93
2023-05-23T06:52:29.485Z,9.77
2023-05-23T06:54:56.137Z,8.73
2023-05-23T06:57:22.630Z,7.70
2023-05-23T06:59:49.522Z,7.82
2023-05-23T07:02:16.007Z,6.63
2023-05-23T07:04:42.488Z,5.68
2023-05-23T07:07:10.098Z,5.35
2023-05-23T07:09:38.631Z,5.20
2023-05-23T07:14:32.040Z,4.43
2023-05-23T07:16:58.543Z,4.53
2023-05-23T07:19:25.068Z,5.10
2023-05-23T07:21:51.751Z,3.95
2023-05-23T07:24:19.325Z,4.63
2023-05-23T07:26:46.138Z,4.63
2023-05-23T07:29:12.557Z,4.85
2023-05-23T07:31:38.999Z,4.32
2023-05-23T07:34:05.715Z,4.97
2023-05-23T07:36:34.188Z,4.85
2023-05-23T07:39:01.588Z,5.35
2023-05-23T07:41:28.042Z,4.70
2023-05-23T07:43:54.533Z,5.10
2023-05-23T07:46:22.958Z,6.13
2023-05-23T07:48:49.584Z,6.07
2023-05-23T07:51:21.183Z,5.70
2023-05-23T07:53:47.667Z,6.15
2023-05-23T07:56:14.368Z,5.95
2023-05-23T07:58:40.873Z,5.47
2023-05-23T08:01:08.294Z,6.10
2023-05-23T08:03:34.898Z,6.13
2023-05-23T08:06:01.489Z,6.25
2023-05-23T08:08:27.902Z,6.18
2023-05-23T08:10:54.456Z,6.20
2023-05-23T08:13:20.931Z,6.57
2023-05-23T08:15:47.588Z,6.22
2023-05-23T08:18:14.601Z,5.78
2023-05-23T08:20:42.476Z,6.70
2023-05-23T08:23:09.576Z,6.93
2023-05-23T08:25:35.962Z,5.90
2023-05-23T08:28:02.362Z,6.82
2023-05-23T08:30:29.404Z,5.82
2023-05-23T08:32:57.159Z,6.07
2023-05-23T08:35:24.519Z,6.50
2023-05-23T08:37:52.215Z,5.68
2023-05-23T08:40:21.311Z,5.97
2023-05-23T08:42:49.242Z,5.60
2023-05-23T08:45:17.028Z,6.10
2023-05-23T08:47:45.346Z,5.70
2023-05-23T08:50:18.106Z,5.57
2023-05-23T08:53:00.682Z,6.45
2023-05-23T08:55:29.159Z,4.95
2023-05-23T08:57:59.253Z,5.72
2023-05-23T09:00:27.264Z,4.88
2023-05-23T09:02:54.828Z,5.32
2023-05-23T09:05:22.016Z,5.13
2023-05-23T09:07:51.277Z,5.45
2023-05-23T09:10:20.639Z,5.47
2023-05-23T09:12:47.378Z,5.18
2023-05-23T09:15:14.736Z,5.60
2023-05-23T09:17:41.374Z,5.50
2023-05-23T09:20:15.287Z,4.95
2023-05-23T09:22:45.853Z,5.55
2023-05-23T09:25:12.319Z,5.97
2023-05-23T09:27:38.934Z,6.22
2023-05-23T09:30:10.890Z,5.70
2023-05-23T09:32:39.091Z,6.43
2023-05-23T09:35:07.709Z,6.65
2023-05-23T09:40:13.633Z,6.10
2023-05-23T09:42:44.476Z,6.03
2023-05-23T09:45:13.898Z,6.20
2023-05-23T09:47:49.258Z,6.38
2023-05-23T09:50:15.640Z,6.53
2023-05-23T09:52:42.295Z,6.25
2023-05-23T09:55:09.261Z,7.00
2023-05-23T09:57:37.865Z,6.47
2023-05-23T10:03:12.404Z,6.90
2023-05-23T10:05:48.202Z,6.57
2023-05-23T10:08:39.174Z,7.10
2023-05-23T10:11:14.536Z,6.68
2023-05-23T10:13:45.930Z,7.68
2023-05-23T10:16:17.120Z,6.75
2023-05-23T10:18:49.038Z,7.28
2023-05-23T10:21:20.928Z,7.47
2023-05-23T10:23:48.352Z,8.10
2023-05-23T10:26:15.946Z,7.35
2023-05-23T10:28:42.801Z,6.65
2023-05-23T10:31:11.748Z,7.28
2023-05-23T10:33:43.924Z,7.28
2023-05-23T10:36:19.336Z,7.50
2023-05-23T10:38:56.061Z,7.28
2023-05-23T10:41:41.561Z,7.13
2023-05-23T10:44:25.313Z,7.18
2023-05-23T10:46:54.229Z,7.47
2023-05-23T10:49:21.553Z,7.57
2023-05-23T10:51:54.190Z,7.63
2023-05-23T10:54:21.353Z,7.53
2023-05-23T10:56:48.475Z,6.85
2023-05-23T10:59:23.294Z,6.95
2023-05-23T11:01:52.798Z,6.45
2023-05-23T11:04:27.559Z,7.32
2023-05-23T11:06:57.617Z,6.68
2023-05-23T11:09:24.218Z,5.90
2023-05-23T11:11:50.664Z,6.43
2023-05-23T11:14:17.031Z,6.28
2023-05-23T11:16:49.316Z,6.93
2023-05-23T11:19:18.845Z,6.45
2023-05-23T11:22:06.019Z,6.32
2023-05-23T11:24:52.371Z,6.45
2023-05-23T11:27:35.734Z,5.85
2023-05-23T11:30:16.158Z,6.10
2023-05-23T11:32:56.198Z,4.90
2023-05-23T11:35:23.240Z,5.57
2023-05-23T11:37:49.995Z,4.93
2023-05-23T11:40:39.614Z,6.55
2023-05-23T11:43:20.076Z,5.40
2023-05-23T11:45:47.022Z,5.28
2023-05-23T11:48:16.703Z,5.90
2023-05-23T11:50:52.243Z,4.68
2023-05-23T11:53:25.929Z,5.00
2023-05-23T11:55:55.468Z,4.78
2023-05-23T11:58:23.686Z,4.80
2023-05-23T12:00:50.078Z,4.68
2023-05-23T12:03:16.648Z,4.10
2023-05-23T12:05:45.259Z,5.13
2023-05-23T12:08:13.820Z,4.47
2023-05-23T12:13:15.104Z,4.50
2023-05-23T12:15:41.826Z,5.60
2023-05-23T12:18:08.908Z,4.38
2023-05-23T12:20:36.156Z,4.55
2023-05-23T12:23:06.211Z,5.00
2023-05-23T12:25:41.944Z,5.32
2023-05-23T12:28:10.696Z,4.25
2023-05-23T12:30:44.269Z,4.80
2023-05-23T12:33:12.218Z,4.28
2023-05-23T12:35:43.489Z,5.97
2023-05-23T12:38:10.023Z,4.70
2023-05-23T12:40:36.642Z,5.18
2023-05-23T12:43:03.089Z,4.50
2023-05-23T12:45:37.057Z,5.00
2023-05-23T12:48:04.337Z,4.95
2023-05-23T12:50:31.477Z,4.88
2023-05-23T12:52:58.835Z,4.97
2023-05-23T12:55:25.319Z,4.88
2023-05-23T12:57:53.038Z,4.38
2023-05-23T13:00:20.380Z,5.00
2023-05-23T13:02:46.903Z,4.15
2023-05-23T13:05:13.631Z,4.70
2023-05-23T13:07:40.357Z,5.53
2023-05-23T13:10:07.365Z,4.72
2023-05-23T13:12:34.717Z,4.90
2023-05-23T13:15:01.466Z,4.25
2023-05-23T13:17:28.022Z,4.75
2023-05-23T13:19:54.733Z,4.85
2023-05-23T13:22:21.182Z,4.20
2023-05-23T13:24:47.936Z,3.97
2023-05-23T13:27:16.271Z,4.15
2023-05-23T13:29:43.112Z,4.85
2023-05-23T13:32:09.768Z,4.70
2023-05-23T13:34:39.456Z,4.53
2023-05-23T13:37:06.055Z,4.25
2023-05-23T13:39:32.497Z,4.07
2023-05-23T13:41:59.180Z,4.60
2023-05-23T13:44:25.961Z,3.63
2023-05-23T13:46:52.419Z,4.07
2023-05-23T13:49:19.076Z,5.00
2023-05-23T13:51:45.566Z,4.20
2023-05-23T13:54:13.215Z,4.82
2023-05-23T13:56:40.383Z,4.37
2023-05-23T13:59:07.056Z,3.92
2023-05-23T14:01:33.573Z,3.85
2023-05-23T14:04:00.413Z,4.30
2023-05-23T14:06:26.899Z,4.35
2023-05-23T14:08:53.507Z,4.03
2023-05-23T14:11:19.905Z,3.55
2023-05-23T14:13:46.338Z,3.95
2023-05-23T14:16:12.839Z,4.45
2023-05-23T14:18:39.294Z,4.38
2023-05-23T14:21:06.145Z,3.30
2023-05-23T14:23:32.683Z,4.28
2023-05-23T14:25:59.462Z,5.10
2023-05-23T14:28:27.475Z,3.45
2023-05-23T14:30:55.502Z,4.00
2023-05-23T14:33:22.281Z,3.72
2023-05-23T14:35:49.351Z,3.38
2023-05-23T14:38:15.767Z,4.60
2023-05-23T14:40:44.087Z,4.35
2023-05-23T14:43:11.466Z,3.50
2023-05-23T14:45:38.323Z,3.53
2023-05-23T14:48:05.824Z,3.75
2023-05-23T14:50:32.461Z,3.85
2023-05-23T14:52:59.678Z,2.95
2023-05-23T14:55:26.282Z,3.35
2023-05-23T14:57:52.685Z,4.13
2023-05-23T15:00:19.545Z,3.58
2023-05-23T15:02:46.627Z,4.60
2023-05-23T15:05:13.196Z,3.53
2023-05-23T15:07:40.266Z,3.90
2023-05-23T15:10:08.549Z,3.22
2023-05-23T15:12:35.041Z,3.78
2023-05-23T15:15:04.701Z,3.60
2023-05-23T15:17:33.762Z,3.60
2023-05-23T15:20:06.037Z,3.42
2023-05-23T15:22:39.347Z,3.40
2023-05-23T15:25:08.010Z,3.30
2023-05-23T15:27:34.521Z,3.33
2023-05-23T15:30:01.841Z,3.50
2023-05-23T15:32:28.640Z,3.78
2023-05-23T15:34:55.123Z,2.75
2023-05-23T15:37:21.582Z,3.53
2023-05-23T15:39:51.316Z,3.30
2023-05-23T15:42:17.668Z,3.67
2023-05-23T15:44:44.349Z,3.65
2023-05-23T15:47:11.223Z,2.90
2023-05-23T15:49:37.826Z,3.38
2023-05-23T15:52:04.506Z,3.60
2023-05-23T15:54:31.109Z,3.33
2023-05-23T15:56:57.535Z,3.35
2023-05-23T15:59:24.205Z,3.53
2023-05-23T16:01:50.678Z,3.00
2023-05-23T16:04:17.263Z,2.72
2023-05-23T16:06:43.832Z,2.78
2023-05-23T16:09:13.300Z,3.00
2023-05-23T16:11:39.962Z,3.22
2023-05-23T16:14:06.628Z,2.92
2023-05-23T16:16:33.098Z,2.58
2023-05-23T16:18:59.948Z,3.15
2023-05-23T16:21:26.493Z,2.92
2023-05-23T16:23:53.135Z,3.67
2023-05-23T16:26:19.857Z,3.05
2023-05-23T16:28:46.402Z,2.92
2023-05-23T16:31:14.990Z,2.95
2023-05-23T16:33:42.089Z,3.00
2023-05-23T16:36:08.854Z,2.88
2023-05-23T16:38:35.564Z,3.53
2023-05-23T16:41:01.986Z,3.13
2023-05-23T16:43:28.631Z,3.20
2023-05-23T16:45:55.083Z,4.57
2023-05-23T16:48:22.305Z,3.30
2023-05-23T16:50:48.879Z,2.95
2023-05-23T16:53:15.592Z,3.10
2023-05-23T16:55:42.289Z,2.80
2023-05-23T16:58:08.861Z,3.10
2023-05-23T17:00:35.294Z,3.45
2023-05-23T17:03:02.370Z,3.53
2023-05-23T17:05:28.941Z,2.97
2023-05-23T17:07:55.396Z,3.25
2023-05-23T17:10:23.682Z,3.33
2023-05-23T17:12:50.184Z,3.47
2023-05-23T17:15:18.352Z,3.45
2023-05-23T17:17:44.902Z,3.33
2023-05-23T17:20:11.968Z,3.60
2023-05-23T17:22:38.489Z,2.75
2023-05-23T17:25:06.455Z,2.65
2023-05-23T17:27:33.746Z,3.67
2023-05-23T17:30:00.359Z,3.10
2023-05-23T17:32:28.088Z,3.50
2023-05-23T17:34:54.547Z,3.83
2023-05-23T17:37:21.190Z,3.03
2023-05-23T17:39:50.708Z,2.70
2023-05-23T17:42:20.390Z,2.65
2023-05-23T17:44:47.034Z,2.90
2023-05-23T17:47:14.082Z,2.75
2023-05-23T17:49:41.798Z,3.15
2023-05-23T17:52:09.971Z,3.00
2023-05-23T17:54:37.756Z,3.35
2023-05-23T17:57:05.328Z,3.00
2023-05-23T17:59:32.952Z,3.08
2023-05-23T18:02:00.480Z,2.60
2023-05-23T18:04:26.958Z,3.00
2023-05-23T18:06:53.666Z,2.80
2023-05-23T18:09:20.616Z,2.85
2023-05-23T18:11:47.302Z,2.90
2023-05-23T18:14:13.732Z,3.60
2023-05-23T18:16:40.389Z,3.05
2023-05-23T18:19:06.884Z,3.03
2023-05-23T18:21:34.940Z,3.55
2023-05-23T18:24:02.986Z,3.45
2023-05-23T18:26:29.553Z,3.45
2023-05-23T18:28:56.068Z,3.85
2023-05-23T18:31:22.545Z,3.20
2023-05-23T18:33:51.445Z,4.28
2023-05-23T18:36:17.988Z,3.00
2023-05-23T18:38:45.803Z,2.78
2023-05-23T18:41:14.714Z,3.05
2023-05-23T18:43:41.645Z,3.05
2023-05-23T18:46:08.084Z,2.53
2023-05-23T18:48:35.939Z,3.00
2023-05-23T18:51:02.825Z,2.50
2023-05-23T18:53:29.347Z,3.05
2023-05-23T18:55:55.895Z,2.85
2023-05-23T18:58:22.321Z,2.70
2023-05-23T19:00:49.033Z,2.53
2023-05-23T19:03:16.748Z,2.42
2023-05-23T19:05:43.282Z,2.95
2023-05-23T19:08:09.709Z,2.78
2023-05-23T19:10:36.418Z,3.33
2023-05-23T19:13:03.732Z,2.40
2023-05-23T19:15:30.359Z,2.75
2023-05-23T19:17:57.018Z,3.05
2023-05-23T19:20:23.705Z,2.35
2023-05-23T19:22:51.728Z,2.55
2023-05-23T19:25:19.083Z,2.95
2023-05-23T19:27:45.630Z,2.83
2023-05-23T19:30:12.246Z,2.85
2023-05-23T19:32:38.771Z,2.88
2023-05-23T19:35:08.260Z,3.08
2023-05-23T19:37:34.755Z,2.78
2023-05-23T19:40:01.749Z,2.72
2023-05-23T19:42:28.309Z,2.67
2023-05-23T19:44:54.780Z,3.03
2023-05-23T19:47:21.145Z,2.60
2023-05-23T19:49:47.768Z,2.30
2023-05-23T19:52:14.514Z,3.03
2023-05-23T19:54:41.022Z,2.38
2023-05-23T19:57:07.761Z,3.30
2023-05-23T19:59:34.243Z,3.10
2023-05-23T20:02:00.980Z,2.92
2023-05-23T20:04:29.374Z,3.13
2023-05-23T20:06:56.140Z,2.60
2023-05-23T20:09:23.500Z,2.60
2023-05-23T20:11:50.296Z,2.60
2023-05-23T20:14:16.669Z,2.78
2023-05-23T20:16:43.337Z,3.17
2023-05-23T20:19:10.207Z,2.55
2023-05-23T20:21:36.852Z,3.28
2023-05-23T20:24:03.389Z,2.50
2023-05-23T20:26:29.809Z,3.20
2023-05-23T20:28:56.202Z,2.97
2023-05-23T20:31:22.924Z,2.75
2023-05-23T20:33:49.823Z,2.60
2023-05-23T20:36:19.569Z,2.80
2023-05-23T20:38:46.670Z,3.70
2023-05-23T20:41:14.059Z,3.03
2023-05-23T20:43:41.026Z,2.55
2023-05-23T20:46:09.356Z,2.90
2023-05-23T20:48:35.983Z,3.20
2023-05-23T20:51:05.542Z,2.53
2023-05-23T20:53:32.196Z,2.95
2023-05-23T20:55:58.984Z,2.97
2023-05-23T20:58:25.406Z,2.72
2023-05-23T21:00:52.410Z,2.80
2023-05-23T21:03:19.427Z,2.97
2023-05-23T21:05:46.080Z,2.88
2023-05-23T21:08:12.472Z,2.67
2023-05-23T21:10:38.919Z,3.67
2023-05-23T21:13:05.526Z,2.58
2023-05-23T21:15:32.158Z,3.00
2023-05-23T21:17:58.908Z,2.35
2023-05-23T21:20:26.186Z,3.03
2023-05-23T21:22:52.619Z,2.30
2023-05-23T21:25:19.071Z,2.03
2023-05-23T21:27:45.599Z,2.80
2023-05-23T21:30:12.718Z,2.60
2023-05-23T21:32:39.129Z,2.55
2023-05-23T21:35:06.315Z,3.30
2023-05-23T21:37:32.948Z,2.33
2023-05-23T21:39:59.301Z,2.65
2023-05-23T21:42:26.051Z,2.65
2023-05-23T21:44:52.821Z,2.10
2023-05-23T21:47:21.426Z,2.40
2023-05-23T21:52:14.888Z,2.33
2023-05-23T21:54:41.506Z,2.33
2023-05-23T21:57:07.876Z,2.30
2023-05-23T21:59:34.227Z,2.83
2023-05-23T22:02:01.022Z,3.13
2023-05-23T22:04:28.167Z,4.25
2023-05-23T22:06:54.617Z,2.75
2023-05-23T22:09:21.135Z,2.38
2023-05-23T22:11:47.796Z,3.15
2023-05-23T22:14:14.419Z,2.83
2023-05-23T22:16:41.005Z,2.63
2023-05-23T22:19:10.065Z,2.47
2023-05-23T22:21:36.763Z,2.72
2023-05-23T22:24:03.651Z,2.95
2023-05-23T22:26:30.422Z,2.75
2023-05-23T22:28:57.057Z,2.90
2023-05-23T22:31:23.879Z,2.90
2023-05-23T22:33:51.183Z,3.90
2023-05-23T22:36:17.607Z,2.78
2023-05-23T22:38:44.162Z,2.60
2023-05-23T22:41:10.920Z,4.13
2023-05-23T22:43:37.636Z,2.63
2023-05-23T22:46:04.180Z,3.10
2023-05-23T22:48:33.637Z,2.97
2023-05-23T22:51:03.633Z,2.85
2023-05-23T22:53:30.407Z,3.58
2023-05-23T22:55:56.976Z,3.05
2023-05-23T22:58:23.651Z,3.47
2023-05-23T23:00:50.476Z,3.28
2023-05-23T23:03:17.029Z,2.70
2023-05-23T23:05:44.550Z,2.88
2023-05-23T23:08:11.910Z,2.80
2023-05-23T23:10:38.455Z,3.42
2023-05-23T23:13:05.057Z,3.25
2023-05-23T23:15:33.689Z,2.97
2023-05-23T23:18:00.422Z,2.22
2023-05-23T23:20:27.566Z,2.80
2023-05-23T23:22:54.010Z,3.00
2023-05-23T23:25:20.755Z,2.63
2023-05-23T23:27:47.189Z,2.75
2023-05-23T23:30:13.741Z,2.67
2023-05-23T23:32:40.444Z,2.50
2023-05-23T23:35:07.396Z,3.47
2023-05-23T23:37:34.026Z,3.15
2023-05-23T23:40:00.559Z,3.15
2023-05-23T23:42:28.166Z,2.92
2023-05-23T23:44:54.686Z,3.25
2023-05-23T23:47:21.102Z,2.38
2023-05-23T23:49:48.065Z,2.20
2023-05-23T23:52:14.880Z,2.20
2023-05-23T23:54:41.482Z,2.85
2023-05-23T23:57:13.463Z,2.83
2023-05-23T23:59:41.419Z,2.80
